Time;durP1;ratioP1;P1;durP2;ratioP2;P2;SDS_P1;SDS_P2;PMS_P1;PMS_P2;Temp;Humidity;BMP_temperature;BMP_pressure;BME280_temperature;BME280_humidity;BME280_pressure;Samples;Min_cycle;Max_cycle;Signal;HPM_P1;HPM_P2
2023/06/12 00:02:06;;;;;;;13.73;5.90;;;;;;;;;;4994896;28;20420;-75
2023/06/12 00:04:33;;;;;;;16.17;5.97;;;;;;;;;;4996480;28;20090;-75
2023/06/12 00:07:01;;;;;;;12.88;6.25;;;;;;;;;;4993790;28;20547;-74
2023/06/12 00:09:28;;;;;;;17.77;6.93;;;;;;;;;;4992847;28;20022;-75
2023/06/12 00:11:53;;;;;;;10.32;5.28;;;;;;;;;;4986971;28;20485;-75
2023/06/12 00:14:20;;;;;;;9.25;5.25;;;;;;;;;;4972858;28;20162;-74
2023/06/12 00:16:45;;;;;;;15.75;6.32;;;;;;;;;;4973953;28;20510;-75
2023/06/12 00:19:11;;;;;;;14.40;6.65;;;;;;;;;;4972977;28;20067;-74
2023/06/12 00:21:38;;;;;;;19.25;7.15;;;;;;;;;;4971058;28;20431;-74
2023/06/12 00:24:08;;;;;;;18.25;6.90;;;;;;;;;;4971792;28;20027;-74
2023/06/12 00:26:35;;;;;;;15.02;6.47;;;;;;;;;;4973943;28;20054;-74
2023/06/12 00:29:01;;;;;;;17.58;7.00;;;;;;;;;;4973454;28;20035;-74
2023/06/12 00:35:18;;;;;;;14.10;6.03;;;;;;;;;;4970129;28;20105;-74
2023/06/12 00:37:46;;;;;;;16.92;5.60;;;;;;;;;;4974302;28;20125;-74
2023/06/12 00:40:11;;;;;;;14.18;5.40;;;;;;;;;;4969802;28;20035;-74
2023/06/12 00:42:45;;;;;;;13.43;5.95;;;;;;;;;;4969164;28;20113;-75
2023/06/12 00:45:13;;;;;;;17.52;7.25;;;;;;;;;;4971001;28;20042;-74
2023/06/12 00:47:39;;;;;;;12.50;7.03;;;;;;;;;;5002149;28;20038;-73
2023/06/12 00:50:09;;;;;;;11.07;6.30;;;;;;;;;;4970947;28;20069;-75
2023/06/12 00:52:36;;;;;;;16.67;6.10;;;;;;;;;;4976375;28;20556;-74
2023/06/12 00:55:02;;;;;;;12.98;6.63;;;;;;;;;;4969028;28;20033;-73
2023/06/12 00:57:28;;;;;;;12.02;7.20;;;;;;;;;;5002041;28;20046;-73
2023/06/12 00:59:56;;;;;;;12.82;7.65;;;;;;;;;;4970640;28;20050;-74
2023/06/12 01:02:33;;;;;;;19.70;8.25;;;;;;;;;;4968228;28;20066;-73
2023/06/12 01:04:59;;;;;;;19.35;7.95;;;;;;;;;;4971828;28;20039;-74
2023/06/12 01:07:41;;;;;;;14.15;7.03;;;;;;;;;;4971837;28;20081;-74
2023/06/12 01:10:28;;;;;;;12.60;6.68;;;;;;;;;;4998314;28;20035;-74
2023/06/12 01:12:57;;;;;;;12.10;6.82;;;;;;;;;;4967098;28;20043;-74
2023/06/12 01:15:22;;;;;;;17.17;6.75;;;;;;;;;;4971606;28;20019;-74
2023/06/12 01:17:48;;;;;;;14.27;7.10;;;;;;;;;;4971964;28;20045;-74
2023/06/12 01:20:17;;;;;;;15.57;6.40;;;;;;;;;;4973149;28;20043;-73
2023/06/12 01:22:51;;;;;;;18.25;6.80;;;;;;;;;;4971409;28;20122;-73
2023/06/12 01:25:32;;;;;;;17.38;7.35;;;;;;;;;;4972932;28;20062;-74
2023/06/12 01:28:26;;;;;;;12.23;6.90;;;;;;;;;;4973177;28;20039;-74
2023/06/12 01:31:18;;;;;;;16.13;6.82;;;;;;;;;;4972618;28;20952;-74
2023/06/12 01:34:01;;;;;;;11.82;6.30;;;;;;;;;;4972684;28;20038;-73
2023/06/12 01:36:28;;;;;;;13.63;6.87;;;;;;;;;;4973009;28;20050;-74
2023/06/12 01:38:59;;;;;;;17.95;6.93;;;;;;;;;;4971832;28;20027;-74
2023/06/12 01:41:28;;;;;;;17.48;6.32;;;;;;;;;;4994544;28;20034;-73
2023/06/12 01:43:55;;;;;;;19.45;5.70;;;;;;;;;;4975357;28;20117;-73
2023/06/12 01:46:20;;;;;;;18.88;6.10;;;;;;;;;;4976475;28;20082;-74
2023/06/12 01:48:46;;;;;;;17.15;6.07;;;;;;;;;;4976337;28;20035;-73
2023/06/12 01:51:12;;;;;;;23.85;5.65;;;;;;;;;;4974722;28;20129;-73
2023/06/12 01:53:39;;;;;;;24.30;7.68;;;;;;;;;;4975435;28;20481;-74
2023/06/12 01:56:06;;;;;;;30.05;7.18;;;;;;;;;;4976559;28;20097;-73
2023/06/12 01:58:32;;;;;;;22.20;6.53;;;;;;;;;;4975017;28;20046;-74
2023/06/12 02:01:15;;;;;;;27.77;6.50;;;;;;;;;;4974058;28;20058;-74
2023/06/12 02:03:45;;;;;;;26.73;6.30;;;;;;;;;;4974553;28;20454;-73
2023/06/12 02:06:17;;;;;;;21.40;6.88;;;;;;;;;;4975033;28;20034;-73
2023/06/12 02:08:44;;;;;;;27.33;8.20;;;;;;;;;;4975111;28;20035;-73
2023/06/12 02:11:13;;;;;;;22.27;6.47;;;;;;;;;;4974525;28;20023;-74
2023/06/12 02:13:39;;;;;;;25.00;7.25;;;;;;;;;;4992715;28;20049;-74
2023/06/12 02:16:07;;;;;;;21.65;6.65;;;;;;;;;;4991758;28;20122;-73
2023/06/12 02:18:33;;;;;;;24.60;7.00;;;;;;;;;;4976064;28;20165;-74
2023/06/12 02:20:59;;;;;;;28.25;7.18;;;;;;;;;;4975805;28;20054;-73
2023/06/12 02:23:26;;;;;;;28.42;6.57;;;;;;;;;;4990256;28;20648;-75
2023/06/12 02:25:51;;;;;;;24.15;6.93;;;;;;;;;;4994241;28;20034;-73
2023/06/12 02:28:17;;;;;;;21.38;6.97;;;;;;;;;;4993934;28;20113;-73
2023/06/12 02:30:43;;;;;;;20.23;6.50;;;;;;;;;;4994839;28;20023;-76
2023/06/12 02:33:12;;;;;;;19.30;6.82;;;;;;;;;;4993441;28;20053;-74
2023/06/12 02:35:40;;;;;;;20.33;5.80;;;;;;;;;;4993972;28;20035;-74
2023/06/12 02:38:07;;;;;;;27.58;7.22;;;;;;;;;;4993449;28;20036;-73
2023/06/12 02:40:33;;;;;;;34.63;7.60;;;;;;;;;;4993531;28;20057;-73
2023/06/12 02:42:59;;;;;;;30.90;8.43;;;;;;;;;;5026180;28;20018;-74
2023/06/12 02:45:25;;;;;;;27.95;7.13;;;;;;;;;;4993970;28;20065;-74
2023/06/12 02:47:51;;;;;;;27.33;7.78;;;;;;;;;;4993747;28;20022;-74
2023/06/12 02:50:19;;;;;;;25.92;7.07;;;;;;;;;;4994254;28;20030;-74
2023/06/12 02:52:50;;;;;;;23.48;6.95;;;;;;;;;;4992716;28;20029;-73
2023/06/12 02:55:16;;;;;;;23.92;7.00;;;;;;;;;;4993602;28;20046;-74
2023/06/12 02:57:42;;;;;;;15.90;6.40;;;;;;;;;;4977177;28;20045;-73
2023/06/12 03:00:09;;;;;;;32.25;8.07;;;;;;;;;;4993838;28;20108;-73
2023/06/12 03:02:42;;;;;;;21.25;7.32;;;;;;;;;;4977682;28;20093;-74
2023/06/12 03:05:14;;;;;;;19.67;7.47;;;;;;;;;;4993458;28;20089;-74
2023/06/12 03:07:42;;;;;;;26.13;7.28;;;;;;;;;;5025919;28;20049;-73
2023/06/12 03:10:09;;;;;;;23.23;7.70;;;;;;;;;;4993384;28;20113;-73
2023/06/12 03:12:35;;;;;;;28.88;7.28;;;;;;;;;;4977834;28;20041;-73
2023/06/12 03:15:05;;;;;;;22.55;7.68;;;;;;;;;;4973652;28;20118;-73
2023/06/12 03:17:31;;;;;;;19.83;8.48;;;;;;;;;;4978860;28;20034;-74
2023/06/12 03:19:56;;;;;;;22.67;7.60;;;;;;;;;;4954539;28;20133;-74
2023/06/12 03:22:23;;;;;;;24.58;7.90;;;;;;;;;;4995606;28;20031;-74
2023/06/12 03:24:53;;;;;;;22.33;8.13;;;;;;;;;;4973500;28;20093;-75
2023/06/12 03:27:21;;;;;;;16.52;6.70;;;;;;;;;;4977861;28;20062;-74
2023/06/12 03:29:47;;;;;;;26.45;8.00;;;;;;;;;;4974086;28;20035;-74
2023/06/12 03:32:14;;;;;;;21.73;7.72;;;;;;;;;;4975495;28;20038;-73
2023/06/12 03:34:47;;;;;;;23.08;8.60;;;;;;;;;;4974282;28;20030;-75
2023/06/12 03:37:13;;;;;;;28.10;8.27;;;;;;;;;;4974601;28;20039;-74
2023/06/12 03:39:39;;;;;;;15.77;7.20;;;;;;;;;;4969564;28;20528;-74
2023/06/12 03:42:07;;;;;;;23.88;8.07;;;;;;;;;;4996654;28;20046;-74
2023/06/12 03:44:44;;;;;;;20.95;8.40;;;;;;;;;;4972975;28;20389;-74
2023/06/12 03:47:11;;;;;;;17.15;8.57;;;;;;;;;;4972973;28;20058;-74
2023/06/12 03:49:40;;;;;;;28.23;8.63;;;;;;;;;;4973112;28;20508;-74
2023/06/12 03:52:07;;;;;;;20.55;9.27;;;;;;;;;;4973757;28;20039;-74
2023/06/12 03:54:33;;;;;;;18.90;8.55;;;;;;;;;;4972694;28;20038;-74
2023/06/12 03:56:59;;;;;;;26.20;8.77;;;;;;;;;;5004618;28;20512;-74
2023/06/12 03:59:25;;;;;;;23.60;8.43;;;;;;;;;;4972656;28;20023;-74
2023/06/12 04:01:51;;;;;;;23.05;9.13;;;;;;;;;;4972320;28;20164;-74
2023/06/12 04:04:19;;;;;;;24.15;9.55;;;;;;;;;;4971876;28;20023;-73
2023/06/12 04:06:45;;;;;;;26.30;9.95;;;;;;;;;;4970861;28;20069;-74
2023/06/12 04:09:15;;;;;;;16.02;9.15;;;;;;;;;;4972765;28;20350;-73
2023/06/12 04:11:42;;;;;;;22.40;9.15;;;;;;;;;;4972129;28;20161;-73
2023/06/12 04:14:08;;;;;;;21.45;9.40;;;;;;;;;;4972515;28;20445;-74
2023/06/12 04:16:34;;;;;;;32.63;9.32;;;;;;;;;;4972415;28;20129;-73
2023/06/12 04:19:03;;;;;;;29.70;10.63;;;;;;;;;;4972284;28;20031;-75
2023/06/12 04:21:32;;;;;;;20.15;9.18;;;;;;;;;;4972173;28;20046;-74
2023/06/12 04:24:03;;;;;;;25.13;10.20;;;;;;;;;;4972250;28;20440;-74
2023/06/12 04:26:29;;;;;;;14.55;9.38;;;;;;;;;;4986836;28;20035;-74
2023/06/12 04:28:56;;;;;;;20.35;10.13;;;;;;;;;;4971195;28;20031;-75
2023/06/12 04:31:26;;;;;;;23.05;10.00;;;;;;;;;;4974402;28;20069;-75
2023/06/12 04:33:54;;;;;;;26.65;10.80;;;;;;;;;;4973214;28;20030;-75
2023/06/12 04:36:22;;;;;;;20.27;9.77;;;;;;;;;;5004284;28;20027;-76
2023/06/12 04:38:51;;;;;;;30.63;9.85;;;;;;;;;;4971499;28;20476;-75
2023/06/12 04:41:24;;;;;;;21.88;9.27;;;;;;;;;;4973035;28;20058;-76
2023/06/12 04:43:58;;;;;;;26.23;10.48;;;;;;;;;;4973433;28;20030;-75
2023/06/12 04:46:28;;;;;;;15.30;9.63;;;;;;;;;;4971916;28;20511;-76
2023/06/12 04:48:55;;;;;;;17.25;9.68;;;;;;;;;;4971510;28;20061;-75
2023/06/12 04:51:23;;;;;;;16.42;10.00;;;;;;;;;;4971678;28;20057;-76
2023/06/12 04:53:53;;;;;;;19.10;11.05;;;;;;;;;;4971750;28;20030;-76
2023/06/12 04:56:22;;;;;;;26.10;10.68;;;;;;;;;;4973233;28;20120;-75
2023/06/12 04:58:52;;;;;;;22.85;10.80;;;;;;;;;;4964376;28;20150;-75
2023/06/12 05:01:21;;;;;;;27.73;10.55;;;;;;;;;;4973647;28;20030;-75
2023/06/12 05:03:49;;;;;;;15.35;10.90;;;;;;;;;;4973317;28;20042;-75
2023/06/12 05:06:16;;;;;;;24.02;10.70;;;;;;;;;;4969647;28;20034;-75
2023/06/12 05:08:44;;;;;;;14.75;10.35;;;;;;;;;;4970932;28;20038;-75
2023/06/12 05:11:10;;;;;;;25.33;9.38;;;;;;;;;;4972054;28;20048;-75
2023/06/12 05:13:36;;;;;;;25.02;10.48;;;;;;;;;;4973890;28;20039;-74
2023/06/12 05:16:01;;;;;;;15.25;10.02;;;;;;;;;;4999570;28;20062;-75
2023/06/12 05:18:28;;;;;;;26.25;10.05;;;;;;;;;;4971703;28;20121;-75
2023/06/12 05:20:58;;;;;;;21.17;9.70;;;;;;;;;;4970614;28;20125;-75
2023/06/12 05:23:24;;;;;;;28.35;10.57;;;;;;;;;;4954147;28;20407;-75
2023/06/12 05:25:49;;;;;;;18.80;10.30;;;;;;;;;;4970106;28;20027;-76
2023/06/12 05:28:16;;;;;;;18.10;10.35;;;;;;;;;;4950748;28;20066;-75
2023/06/12 05:30:44;;;;;;;18.02;10.57;;;;;;;;;;4970430;28;20026;-74
2023/06/12 05:33:10;;;;;;;16.67;10.52;;;;;;;;;;4970782;28;20113;-75
2023/06/12 05:35:36;;;;;;;17.13;10.65;;;;;;;;;;4970335;28;20027;-75
2023/06/12 05:38:03;;;;;;;21.42;10.00;;;;;;;;;;4952028;28;20062;-75
2023/06/12 05:40:31;;;;;;;18.83;10.07;;;;;;;;;;4971004;28;20058;-74
2023/06/12 05:42:59;;;;;;;15.23;10.15;;;;;;;;;;4968919;28;20046;-75
2023/06/12 05:45:25;;;;;;;22.63;10.75;;;;;;;;;;4993175;28;20022;-75
2023/06/12 05:47:52;;;;;;;17.55;10.07;;;;;;;;;;4970395;28;20030;-75
2023/06/12 05:50:18;;;;;;;18.25;9.73;;;;;;;;;;4970490;28;20113;-75
2023/06/12 05:52:43;;;;;;;22.35;9.68;;;;;;;;;;4971787;28;20047;-75
2023/06/12 05:55:09;;;;;;;26.08;10.90;;;;;;;;;;4963280;28;20087;-73
2023/06/12 05:57:35;;;;;;;24.20;9.77;;;;;;;;;;4966936;28;20054;-73
2023/06/12 06:03:48;;;;;;;20.88;10.07;;;;;;;;;;4963369;28;20034;-74
2023/06/12 06:06:16;;;;;;;16.83;9.65;;;;;;;;;;4954568;28;20058;-74
2023/06/12 06:08:42;;;;;;;19.52;8.43;;;;;;;;;;4969587;28;20026;-74
2023/06/12 06:11:08;;;;;;;31.17;10.93;;;;;;;;;;4969906;28;20042;-73
2023/06/12 06:13:34;;;;;;;18.25;9.13;;;;;;;;;;4970146;28;20496;-74
2023/06/12 06:16:01;;;;;;;17.42;9.48;;;;;;;;;;4970022;28;20034;-74
2023/06/12 06:18:29;;;;;;;16.17;9.23;;;;;;;;;;4970176;28;20054;-74
2023/06/12 06:20:56;;;;;;;17.27;10.75;;;;;;;;;;4969506;28;20027;-74
2023/06/12 06:23:22;;;;;;;21.48;11.65;;;;;;;;;;4969589;28;20031;-75
2023/06/12 06:25:48;;;;;;;18.73;10.63;;;;;;;;;;4969840;28;20121;-73
2023/06/12 06:28:15;;;;;;;18.70;11.15;;;;;;;;;;4956791;28;20088;-74
2023/06/12 06:30:41;;;;;;;15.43;9.20;;;;;;;;;;4975592;28;20042;-73
2023/06/12 06:33:07;;;;;;;20.10;10.32;;;;;;;;;;4974649;28;20031;-73
2023/06/12 06:35:32;;;;;;;23.35;12.52;;;;;;;;;;4973136;28;20096;-73
2023/06/12 06:37:58;;;;;;;20.77;9.85;;;;;;;;;;4973269;28;20038;-73
2023/06/12 06:40:25;;;;;;;17.50;9.55;;;;;;;;;;4973074;28;20046;-73
2023/06/12 06:42:52;;;;;;;16.23;9.45;;;;;;;;;;4973624;28;20070;-74
2023/06/12 06:45:23;;;;;;;20.30;9.70;;;;;;;;;;4973096;28;20069;-75
2023/06/12 06:47:51;;;;;;;16.48;9.18;;;;;;;;;;4973335;28;20089;-75
2023/06/12 06:50:20;;;;;;;11.40;8.38;;;;;;;;;;4973008;28;20031;-73
2023/06/12 06:52:47;;;;;;;14.52;7.43;;;;;;;;;;4973267;28;20065;-73
2023/06/12 06:55:14;;;;;;;30.08;11.18;;;;;;;;;;4973395;28;20403;-72
2023/06/12 06:57:40;;;;;;;17.92;10.23;;;;;;;;;;4974154;28;20085;-73
2023/06/12 07:00:07;;;;;;;20.13;9.57;;;;;;;;;;4978174;28;20041;-74
2023/06/12 07:02:34;;;;;;;21.25;11.85;;;;;;;;;;4969326;28;20031;-73
2023/06/12 07:05:03;;;;;;;16.02;10.23;;;;;;;;;;4972650;28;20077;-73
2023/06/12 07:07:29;;;;;;;26.20;12.70;;;;;;;;;;4972876;28;20034;-74
2023/06/12 07:09:55;;;;;;;23.52;11.85;;;;;;;;;;4956713;28;20432;-74
2023/06/12 07:12:21;;;;;;;18.70;10.48;;;;;;;;;;4972349;28;20476;-75
2023/06/12 07:14:47;;;;;;;24.60;11.95;;;;;;;;;;4973575;28;20093;-72
2023/06/12 07:17:17;;;;;;;18.85;11.00;;;;;;;;;;4972409;28;20035;-73
2023/06/12 07:19:43;;;;;;;28.27;9.65;;;;;;;;;;5004765;28;20124;-74
2023/06/12 07:22:09;;;;;;;20.13;11.10;;;;;;;;;;4956357;28;20043;-74
2023/06/12 07:24:34;;;;;;;14.73;10.23;;;;;;;;;;4972119;28;20030;-75
2023/06/12 07:27:00;;;;;;;18.45;11.15;;;;;;;;;;4956078;28;20042;-74
2023/06/12 07:29:27;;;;;;;20.35;10.57;;;;;;;;;;4972305;28;20030;-76
2023/06/12 07:31:53;;;;;;;15.60;9.57;;;;;;;;;;4971914;28;20037;-74
2023/06/12 07:34:19;;;;;;;10.73;7.32;;;;;;;;;;4971999;28;20027;-75
2023/06/12 07:36:46;;;;;;;11.90;6.40;;;;;;;;;;4969695;28;20058;-76
2023/06/12 07:39:12;;;;;;;10.25;6.32;;;;;;;;;;4988758;28;20126;-77
2023/06/12 07:41:39;;;;;;;13.52;6.53;;;;;;;;;;4970527;28;20488;-76
2023/06/12 07:44:06;;;;;;;8.77;5.78;;;;;;;;;;4972010;28;20384;-75
2023/06/12 07:46:35;;;;;;;9.93;5.35;;;;;;;;;;4972525;28;20039;-75
2023/06/12 07:49:01;;;;;;;9.68;5.13;;;;;;;;;;4972601;28;20515;-76
2023/06/12 07:51:28;;;;;;;6.65;4.93;;;;;;;;;;4972638;28;20038;-76
2023/06/12 07:53:54;;;;;;;8.13;5.40;;;;;;;;;;4972595;28;20488;-75
2023/06/12 07:56:22;;;;;;;8.63;5.75;;;;;;;;;;4972899;28;20037;-76
2023/06/12 07:58:52;;;;;;;9.45;4.80;;;;;;;;;;4972305;28;20026;-76
2023/06/12 08:01:18;;;;;;;9.57;4.68;;;;;;;;;;4967673;28;20041;-75
2023/06/12 08:03:45;;;;;;;9.48;4.93;;;;;;;;;;4991190;28;20109;-76
2023/06/12 08:06:15;;;;;;;10.95;4.90;;;;;;;;;;4991120;28;20038;-76
2023/06/12 08:08:45;;;;;;;9.10;4.38;;;;;;;;;;4992807;28;20069;-76
2023/06/12 08:11:12;;;;;;;6.78;4.32;;;;;;;;;;4990981;28;20057;-76
2023/06/12 08:13:41;;;;;;;6.22;4.20;;;;;;;;;;4991107;28;20042;-76
2023/06/12 08:16:08;;;;;;;7.55;4.50;;;;;;;;;;4968302;28;20063;-78
2023/06/12 08:18:34;;;;;;;6.70;4.70;;;;;;;;;;4967880;28;20042;-77
2023/06/12 08:21:01;;;;;;;8.63;4.50;;;;;;;;;;4968107;28;20161;-76
2023/06/12 08:23:27;;;;;;;8.18;4.40;;;;;;;;;;4967914;28;20117;-75
2023/06/12 08:25:54;;;;;;;10.02;4.95;;;;;;;;;;4967531;28;20042;-75
2023/06/12 08:28:19;;;;;;;5.85;4.20;;;;;;;;;;4999373;28;20083;-75
2023/06/12 08:30:50;;;;;;;8.50;4.00;;;;;;;;;;4967337;28;20041;-74
2023/06/12 08:33:16;;;;;;;4.55;4.05;;;;;;;;;;4966899;28;20042;-74
2023/06/12 08:35:43;;;;;;;11.77;4.53;;;;;;;;;;4969133;28;20492;-72
2023/06/12 08:38:10;;;;;;;5.32;4.53;;;;;;;;;;4966702;28;20034;-76
2023/06/12 08:40:36;;;;;;;5.40;4.25;;;;;;;;;;4962877;28;20497;-74
2023/06/12 08:43:02;;;;;;;7.90;4.35;;;;;;;;;;4968089;28;20172;-73
2023/06/12 08:45:32;;;;;;;8.40;4.72;;;;;;;;;;4966612;28;20065;-74
2023/06/12 08:47:59;;;;;;;10.98;4.53;;;;;;;;;;4968956;28;20042;-72
2023/06/12 08:50:26;;;;;;;8.90;4.10;;;;;;;;;;4967804;28;20089;-74
2023/06/12 08:52:56;;;;;;;6.25;3.90;;;;;;;;;;4997286;28;20046;-73
2023/06/12 08:55:25;;;;;;;5.82;3.80;;;;;;;;;;4948187;28;20034;-74
2023/06/12 08:57:51;;;;;;;4.68;4.05;;;;;;;;;;4967747;28;20038;-74
2023/06/12 09:00:17;;;;;;;6.05;3.88;;;;;;;;;;4967003;28;20129;-74
2023/06/12 09:02:46;;;;;;;5.10;4.00;;;;;;;;;;4968589;28;20117;-76
2023/06/12 09:05:26;;;;;;;4.72;3.75;;;;;;;;;;4981714;28;20523;-74
2023/06/12 09:07:52;;;;;;;5.90;3.88;;;;;;;;;;4967848;28;20112;-73
2023/06/12 09:10:18;;;;;;;7.78;4.45;;;;;;;;;;4971054;28;20058;-75
2023/06/12 09:12:45;;;;;;;5.55;4.32;;;;;;;;;;4970007;28;20046;-74
2023/06/12 09:15:18;;;;;;;6.38;4.35;;;;;;;;;;4969069;28;20097;-74
2023/06/12 09:17:49;;;;;;;6.15;4.43;;;;;;;;;;4967956;28;20037;-76
2023/06/12 09:20:23;;;;;;;6.00;4.20;;;;;;;;;;4997859;28;20821;-74
2023/06/12 09:22:51;;;;;;;4.97;4.05;;;;;;;;;;4969747;28;20477;-75
2023/06/12 09:25:21;;;;;;;6.00;4.03;;;;;;;;;;4969354;28;20597;-74
2023/06/12 09:27:47;;;;;;;5.82;4.50;;;;;;;;;;4968897;28;20154;-74
2023/06/12 09:30:14;;;;;;;5.53;3.75;;;;;;;;;;4967997;28;20114;-72
2023/06/12 09:32:43;;;;;;;6.57;4.05;;;;;;;;;;4966451;28;20034;-72
2023/06/12 09:35:11;;;;;;;6.30;4.00;;;;;;;;;;4967802;28;20098;-72
2023/06/12 09:37:38;;;;;;;9.55;4.20;;;;;;;;;;4968124;28;20918;-72
2023/06/12 09:40:13;;;;;;;5.30;3.53;;;;;;;;;;4965494;28;20098;-73
2023/06/12 09:42:40;;;;;;;6.03;4.00;;;;;;;;;;4966461;28;20049;-73
2023/06/12 09:45:14;;;;;;;8.98;4.57;;;;;;;;;;4967451;28;20027;-72
2023/06/12 09:47:42;;;;;;;7.53;4.78;;;;;;;;;;4999032;28;20074;-72
2023/06/12 09:50:10;;;;;;;10.05;4.38;;;;;;;;;;4967977;28;20034;-72
2023/06/12 09:52:39;;;;;;;8.27;5.18;;;;;;;;;;4968064;28;20078;-71
2023/06/12 09:55:06;;;;;;;10.40;4.95;;;;;;;;;;4968672;28;20582;-72
2023/06/12 09:57:35;;;;;;;8.88;5.00;;;;;;;;;;4967428;28;20038;-72
2023/06/12 10:00:07;;;;;;;8.65;4.63;;;;;;;;;;4966746;28;20062;-72
2023/06/12 10:02:41;;;;;;;6.75;4.85;;;;;;;;;;4968928;28;20555;-72
2023/06/12 10:05:16;;;;;;;8.70;5.03;;;;;;;;;;4973302;28;20428;-72
2023/06/12 10:07:47;;;;;;;10.32;5.38;;;;;;;;;;4971607;28;20428;-72
2023/06/12 10:10:15;;;;;;;10.98;4.82;;;;;;;;;;4972236;28;20039;-71
2023/06/12 10:12:42;;;;;;;11.88;5.50;;;;;;;;;;4972111;28;20037;-72
2023/06/12 10:15:08;;;;;;;6.60;5.45;;;;;;;;;;4970891;28;20105;-73
2023/06/12 10:17:36;;;;;;;8.80;5.70;;;;;;;;;;4972085;28;20504;-72
2023/06/12 10:20:03;;;;;;;8.95;5.22;;;;;;;;;;4972385;28;20061;-73
2023/06/12 10:22:30;;;;;;;7.55;5.07;;;;;;;;;;4971535;28;20035;-74
2023/06/12 10:24:57;;;;;;;8.30;5.60;;;;;;;;;;4971542;28;20038;-75
2023/06/12 10:27:23;;;;;;;8.57;5.40;;;;;;;;;;4971928;28;20046;-75
2023/06/12 10:29:57;;;;;;;8.02;4.85;;;;;;;;;;4971243;28;20042;-73
2023/06/12 10:32:23;;;;;;;7.70;5.38;;;;;;;;;;4972592;28;20058;-72
2023/06/12 10:34:53;;;;;;;7.95;5.72;;;;;;;;;;4988605;28;20026;-73
2023/06/12 10:37:21;;;;;;;9.55;5.72;;;;;;;;;;4979438;28;20050;-73
2023/06/12 10:39:47;;;;;;;6.95;5.40;;;;;;;;;;4967803;28;20117;-73
2023/06/12 10:42:13;;;;;;;8.40;5.68;;;;;;;;;;4968109;28;20038;-72
2023/06/12 10:44:41;;;;;;;7.90;5.05;;;;;;;;;;4968671;28;20068;-73
2023/06/12 10:47:22;;;;;;;7.38;3.92;;;;;;;;;;4969238;28;20469;-75
2023/06/12 10:49:58;;;;;;;7.88;3.40;;;;;;;;;;4969113;28;20034;-71
2023/06/12 10:52:26;;;;;;;5.47;3.92;;;;;;;;;;4969890;28;20108;-73
2023/06/12 10:55:13;;;;;;;7.53;3.60;;;;;;;;;;4969396;28;20034;-73
2023/06/12 10:57:51;;;;;;;9.95;4.43;;;;;;;;;;4968419;28;20057;-74
2023/06/12 11:00:19;;;;;;;5.93;4.15;;;;;;;;;;4968973;28;20447;-73
2023/06/12 11:02:57;;;;;;;8.38;5.60;;;;;;;;;;4968232;28;20109;-73
2023/06/12 11:05:25;;;;;;;8.90;5.85;;;;;;;;;;4968938;28;20413;-73
2023/06/12 11:07:50;;;;;;;9.02;5.65;;;;;;;;;;4967513;28;20019;-74
2023/06/12 11:10:16;;;;;;;12.70;5.60;;;;;;;;;;4968811;28;20049;-73
2023/06/12 11:12:51;;;;;;;7.70;4.90;;;;;;;;;;4968040;28;20041;-73
2023/06/12 11:15:20;;;;;;;9.00;5.28;;;;;;;;;;4968704;28;20038;-72
2023/06/12 11:17:46;;;;;;;6.55;5.18;;;;;;;;;;4968389;28;20459;-74
2023/06/12 11:20:13;;;;;;;10.25;4.90;;;;;;;;;;4968791;28;20039;-74
2023/06/12 11:22:41;;;;;;;8.38;4.50;;;;;;;;;;4967908;28;20050;-74
2023/06/12 11:25:07;;;;;;;9.35;5.28;;;;;;;;;;4968373;28;20031;-73
2023/06/12 11:27:36;;;;;;;8.43;4.95;;;;;;;;;;4968715;28;20420;-75
2023/06/12 11:30:13;;;;;;;7.78;4.47;;;;;;;;;;4968548;28;20050;-72
2023/06/12 11:32:42;;;;;;;8.75;5.07;;;;;;;;;;4967812;28;20145;-72
2023/06/12 11:35:09;;;;;;;15.68;6.45;;;;;;;;;;4968448;28;20058;-72
2023/06/12 11:37:40;;;;;;;9.00;5.18;;;;;;;;;;4967560;28;20043;-73
2023/06/12 11:40:11;;;;;;;12.32;5.43;;;;;;;;;;4966948;28;20326;-73
2023/06/12 11:42:40;;;;;;;15.05;5.95;;;;;;;;;;4967758;28;20030;-72
2023/06/12 11:45:10;;;;;;;12.90;6.13;;;;;;;;;;4968264;28;20019;-73
2023/06/12 11:47:38;;;;;;;9.75;5.60;;;;;;;;;;4968262;28;20073;-72
2023/06/12 11:50:10;;;;;;;10.63;5.85;;;;;;;;;;4968736;28;20035;-72
2023/06/12 11:52:39;;;;;;;10.30;6.82;;;;;;;;;;4967564;28;20039;-71
2023/06/12 11:55:08;;;;;;;12.43;6.13;;;;;;;;;;4967482;28;20126;-71
2023/06/12 11:57:35;;;;;;;18.40;7.55;;;;;;;;;;4967268;28;20053;-72
2023/06/12 12:00:16;;;;;;;14.05;7.78;;;;;;;;;;4967844;28;20062;-72
2023/06/12 12:02:49;;;;;;;11.95;6.93;;;;;;;;;;4967658;28;20077;-72
2023/06/12 12:05:18;;;;;;;11.40;7.10;;;;;;;;;;4968176;28;20526;-72
2023/06/12 12:07:48;;;;;;;12.98;6.80;;;;;;;;;;4969134;28;20058;-72
2023/06/12 12:10:14;;;;;;;9.07;5.93;;;;;;;;;;4969275;28;20117;-72
2023/06/12 12:12:51;;;;;;;8.57;5.55;;;;;;;;;;4969411;28;20051;-72
2023/06/12 12:15:20;;;;;;;12.82;6.82;;;;;;;;;;4969285;28;20047;-72
2023/06/12 12:17:47;;;;;;;12.60;6.40;;;;;;;;;;4969484;28;20038;-72
2023/06/12 12:20:18;;;;;;;9.30;5.82;;;;;;;;;;4967833;28;20065;-73
2023/06/12 12:22:48;;;;;;;10.88;6.00;;;;;;;;;;4969898;28;20536;-73
2023/06/12 12:25:26;;;;;;;9.80;6.57;;;;;;;;;;4967055;28;20047;-72
2023/06/12 12:27:54;;;;;;;8.75;6.22;;;;;;;;;;4969284;28;20441;-72
2023/06/12 12:30:21;;;;;;;10.13;5.70;;;;;;;;;;4969210;28;20033;-72
2023/06/12 12:32:48;;;;;;;8.40;5.72;;;;;;;;;;4967510;28;20051;-74
2023/06/12 12:35:15;;;;;;;8.57;5.75;;;;;;;;;;4970507;28;20041;-74
2023/06/12 12:37:42;;;;;;;7.75;5.63;;;;;;;;;;4969556;28;20449;-74
2023/06/12 12:40:10;;;;;;;8.25;5.57;;;;;;;;;;4968468;28;20030;-71
2023/06/12 12:42:37;;;;;;;9.98;5.45;;;;;;;;;;4970130;28;20054;-74
2023/06/12 12:45:03;;;;;;;7.78;6.10;;;;;;;;;;4968928;28;20030;-75
2023/06/12 12:47:29;;;;;;;8.40;5.32;;;;;;;;;;4969042;28;20519;-74
2023/06/12 12:49:55;;;;;;;7.68;5.47;;;;;;;;;;4968688;28;20066;-76
2023/06/12 12:52:21;;;;;;;9.88;6.07;;;;;;;;;;4998375;28;20050;-74
2023/06/12 12:54:47;;;;;;;9.43;6.50;;;;;;;;;;4967188;28;20031;-73
2023/06/12 12:57:14;;;;;;;10.63;6.40;;;;;;;;;;4968530;28;20113;-74
2023/06/12 12:59:41;;;;;;;8.70;6.00;;;;;;;;;;4967230;28;20039;-75
2023/06/12 13:02:07;;;;;;;9.07;5.75;;;;;;;;;;4968023;28;20045;-75
2023/06/12 13:04:32;;;;;;;10.85;6.78;;;;;;;;;;4996276;28;20039;-75
2023/06/12 13:06:58;;;;;;;7.50;5.65;;;;;;;;;;4969121;28;20035;-75
2023/06/12 13:09:24;;;;;;;9.48;6.22;;;;;;;;;;4999734;28;20117;-74
2023/06/12 13:11:50;;;;;;;11.60;7.35;;;;;;;;;;4951332;28;20038;-74
2023/06/12 13:14:18;;;;;;;10.43;5.70;;;;;;;;;;4968998;28;20034;-75
2023/06/12 13:16:44;;;;;;;9.23;6.28;;;;;;;;;;4968802;28;20042;-75
2023/06/12 13:19:10;;;;;;;9.52;6.18;;;;;;;;;;4967748;28;20027;-75
2023/06/12 13:21:39;;;;;;;10.60;5.97;;;;;;;;;;4971285;28;20500;-73
2023/06/12 13:24:06;;;;;;;9.50;6.57;;;;;;;;;;4971594;28;20046;-75
2023/06/12 13:26:32;;;;;;;11.40;7.10;;;;;;;;;;4972270;28;20062;-75
2023/06/12 13:28:58;;;;;;;10.90;7.10;;;;;;;;;;4972812;28;20058;-75
2023/06/12 13:31:25;;;;;;;10.63;8.18;;;;;;;;;;4972007;28;20117;-75
2023/06/12 13:33:51;;;;;;;10.45;7.10;;;;;;;;;;4972793;28;20043;-75
2023/06/12 13:36:17;;;;;;;11.85;9.32;;;;;;;;;;4971064;28;20041;-75
2023/06/12 13:38:42;;;;;;;12.27;7.22;;;;;;;;;;4975868;28;20026;-75
2023/06/12 13:41:09;;;;;;;9.15;6.90;;;;;;;;;;4975475;28;20031;-75
2023/06/12 13:43:35;;;;;;;11.40;7.07;;;;;;;;;;4982949;28;20027;-75
2023/06/12 13:46:01;;;;;;;8.55;6.72;;;;;;;;;;4991545;28;20342;-76
2023/06/12 13:48:27;;;;;;;12.52;6.55;;;;;;;;;;4995716;28;20045;-75
2023/06/12 13:50:53;;;;;;;10.45;6.80;;;;;;;;;;4975356;28;20041;-75
2023/06/12 13:53:19;;;;;;;14.10;6.32;;;;;;;;;;4976532;28;20451;-75
2023/06/12 13:55:45;;;;;;;24.27;6.85;;;;;;;;;;4975880;28;20081;-75
2023/06/12 13:58:12;;;;;;;17.83;6.13;;;;;;;;;;4986683;28;20065;-75
2023/06/12 14:00:38;;;;;;;11.55;5.95;;;;;;;;;;4996022;28;20030;-75
2023/06/12 14:03:05;;;;;;;27.38;7.38;;;;;;;;;;4995862;28;20058;-75
2023/06/12 14:05:30;;;;;;;24.23;7.50;;;;;;;;;;4986053;28;20034;-74
2023/06/12 14:07:56;;;;;;;22.88;6.43;;;;;;;;;;4975960;28;20085;-76
2023/06/12 14:10:24;;;;;;;32.05;7.72;;;;;;;;;;4974822;28;20524;-74
2023/06/12 14:12:50;;;;;;;9.10;5.63;;;;;;;;;;4976526;28;20054;-74
2023/06/12 14:15:15;;;;;;;23.55;6.38;;;;;;;;;;4994102;28;20429;-74
2023/06/12 14:17:43;;;;;;;10.27;5.78;;;;;;;;;;4995650;28;20034;-73
2023/06/12 14:20:09;;;;;;;22.45;6.65;;;;;;;;;;4993738;28;20133;-75
2023/06/12 14:22:36;;;;;;;5.80;4.78;;;;;;;;;;4978178;28;20045;-73
2023/06/12 14:25:01;;;;;;;8.18;4.78;;;;;;;;;;4994096;28;20026;-75
2023/06/12 14:27:27;;;;;;;10.85;5.25;;;;;;;;;;4981347;28;20370;-73
2023/06/12 14:29:53;;;;;;;9.40;5.18;;;;;;;;;;4993252;28;20167;-73
2023/06/12 14:32:19;;;;;;;13.73;4.72;;;;;;;;;;4972013;28;20034;-73
2023/06/12 14:34:45;;;;;;;6.55;4.28;;;;;;;;;;4976404;28;20405;-73
2023/06/12 14:37:11;;;;;;;13.65;5.55;;;;;;;;;;4975517;28;20442;-74
2023/06/12 14:39:36;;;;;;;7.85;4.88;;;;;;;;;;4974005;28;20023;-73
2023/06/12 14:42:02;;;;;;;16.20;6.03;;;;;;;;;;4975452;28;20050;-72
2023/06/12 14:44:28;;;;;;;31.38;7.80;;;;;;;;;;4975536;28;20030;-72
2023/06/12 14:46:53;;;;;;;11.40;5.60;;;;;;;;;;4974880;28;20405;-72